sensor_id;sensor_type;location;lat;lon;timestamp;pressure;altitude;pressure_sealevel;temperature;humidity
36138;BME280;67787;50.074;21.904;2024-01-07T00:02:11;98414.13;;;-0.80;81.61
36138;BME280;67787;50.074;21.904;2024-01-07T00:04:40;98414.38;;;-0.82;81.28
36138;BME280;67787;50.074;21.904;2024-01-07T00:07:08;98414.20;;;-0.86;81.23
36138;BME280;67787;50.074;21.904;2024-01-07T00:09:36;98418.30;;;-0.89;81.38
36138;BME280;67787;50.074;21.904;2024-01-07T00:12:04;98419.74;;;-0.91;81.38
36138;BME280;67787;50.074;21.904;2024-01-07T00:14:33;98426.33;;;-0.95;81.48
36138;BME280;67787;50.074;21.904;2024-01-07T00:17:00;98426.13;;;-0.99;81.46
36138;BME280;67787;50.074;21.904;2024-01-07T00:19:28;98427.81;;;-1.02;81.33
36138;BME280;67787;50.074;21.904;2024-01-07T00:21:59;98431.31;;;-1.03;81.56
36138;BME280;67787;50.074;21.904;2024-01-07T00:24:27;98430.52;;;-1.05;81.25
36138;BME280;67787;50.074;21.904;2024-01-07T00:26:56;98436.18;;;-1.08;81.65
36138;BME280;67787;50.074;21.904;2024-01-07T00:29:24;98435.04;;;-1.10;81.33
36138;BME280;67787;50.074;21.904;2024-01-07T00:31:52;98439.27;;;-1.11;81.34
36138;BME280;67787;50.074;21.904;2024-01-07T00:34:20;98439.52;;;-1.14;81.49
36138;BME280;67787;50.074;21.904;2024-01-07T00:36:48;98438.19;;;-1.15;81.54
36138;BME280;67787;50.074;21.904;2024-01-07T00:39:16;98440.52;;;-1.18;81.28
36138;BME280;67787;50.074;21.904;2024-01-07T00:41:44;98440.25;;;-1.20;81.38
36138;BME280;67787;50.074;21.904;2024-01-07T00:44:11;98443.45;;;-1.22;81.43
36138;BME280;67787;50.074;21.904;2024-01-07T00:46:39;98444.34;;;-1.22;81.38
36138;BME280;67787;50.074;21.904;2024-01-07T00:49:07;98448.20;;;-1.23;81.51
36138;BME280;67787;50.074;21.904;2024-01-07T00:51:35;98453.23;;;-1.23;81.53
36138;BME280;67787;50.074;21.904;2024-01-07T00:54:03;98449.65;;;-1.24;81.44
36138;BME280;67787;50.074;21.904;2024-01-07T00:56:31;98449.36;;;-1.26;81.51
36138;BME280;67787;50.074;21.904;2024-01-07T00:58:59;98451.19;;;-1.29;81.36
36138;BME280;67787;50.074;21.904;2024-01-07T01:01:26;98461.39;;;-1.32;81.55
36138;BME280;67787;50.074;21.904;2024-01-07T01:03:54;98458.16;;;-1.35;81.23
36138;BME280;67787;50.074;21.904;2024-01-07T01:06:22;98458.45;;;-1.38;81.29
36138;BME280;67787;50.074;21.904;2024-01-07T01:08:50;98457.33;;;-1.41;81.40
36138;BME280;67787;50.074;21.904;2024-01-07T01:11:18;98453.95;;;-1.43;81.43
36138;BME280;67787;50.074;21.904;2024-01-07T01:13:46;98455.73;;;-1.46;81.54
36138;BME280;67787;50.074;21.904;2024-01-07T01:16:14;98457.59;;;-1.49;81.59
36138;BME280;67787;50.074;21.904;2024-01-07T01:18:41;98458.56;;;-1.52;81.47
36138;BME280;67787;50.074;21.904;2024-01-07T01:21:10;98457.54;;;-1.53;81.53
36138;BME280;67787;50.074;21.904;2024-01-07T01:23:38;98459.10;;;-1.52;81.25
36138;BME280;67787;50.074;21.904;2024-01-07T01:26:06;98454.29;;;-1.54;81.40
36138;BME280;67787;50.074;21.904;2024-01-07T01:28:34;98459.42;;;-1.57;81.43
36138;BME280;67787;50.074;21.904;2024-01-07T01:31:01;98459.31;;;-1.64;81.48
36138;BME280;67787;50.074;21.904;2024-01-07T01:33:29;98458.58;;;-1.68;81.42
36138;BME280;67787;50.074;21.904;2024-01-07T01:35:57;98457.58;;;-1.70;81.53
36138;BME280;67787;50.074;21.904;2024-01-07T01:38:25;98455.95;;;-1.73;81.42
36138;BME280;67787;50.074;21.904;2024-01-07T01:40:53;98454.62;;;-1.75;81.41
36138;BME280;67787;50.074;21.904;2024-01-07T01:43:26;98454.50;;;-1.77;81.22
36138;BME280;67787;50.074;21.904;2024-01-07T01:45:55;98450.94;;;-1.80;81.17
36138;BME280;67787;50.074;21.904;2024-01-07T01:48:25;98457.56;;;-1.81;81.34
36138;BME280;67787;50.074;21.904;2024-01-07T01:50:54;98456.81;;;-1.84;81.55
36138;BME280;67787;50.074;21.904;2024-01-07T01:53:26;98457.46;;;-1.88;81.56
36138;BME280;67787;50.074;21.904;2024-01-07T01:55:59;98450.73;;;-1.90;81.44
36138;BME280;67787;50.074;21.904;2024-01-07T01:58:29;98451.17;;;-1.92;81.44
36138;BME280;67787;50.074;21.904;2024-01-07T02:00:58;98453.77;;;-1.92;81.60
36138;BME280;67787;50.074;21.904;2024-01-07T02:03:26;98458.71;;;-1.95;81.49
36138;BME280;67787;50.074;21.904;2024-01-07T02:05:56;98459.12;;;-1.96;81.35
36138;BME280;67787;50.074;21.904;2024-01-07T02:08:26;98461.94;;;-1.98;81.34
36138;BME280;67787;50.074;21.904;2024-01-07T02:10:54;98459.96;;;-2.01;81.37
36138;BME280;67787;50.074;21.904;2024-01-07T02:13:21;98457.80;;;-2.04;81.33
36138;BME280;67787;50.074;21.904;2024-01-07T02:15:49;98455.31;;;-2.08;81.34
36138;BME280;67787;50.074;21.904;2024-01-07T02:18:17;98451.78;;;-2.12;81.34
36138;BME280;67787;50.074;21.904;2024-01-07T02:20:45;98449.26;;;-2.14;81.31
36138;BME280;67787;50.074;21.904;2024-01-07T02:23:13;98448.33;;;-2.18;81.51
36138;BME280;67787;50.074;21.904;2024-01-07T02:25:41;98451.30;;;-2.19;81.57
36138;BME280;67787;50.074;21.904;2024-01-07T02:28:09;98453.58;;;-2.20;81.52
36138;BME280;67787;50.074;21.904;2024-01-07T02:30:37;98451.35;;;-2.21;81.59
36138;BME280;67787;50.074;21.904;2024-01-07T02:33:05;98445.77;;;-2.20;81.58
36138;BME280;67787;50.074;21.904;2024-01-07T02:35:33;98449.40;;;-2.20;81.39
36138;BME280;67787;50.074;21.904;2024-01-07T02:38:01;98446.15;;;-2.21;81.43
36138;BME280;67787;50.074;21.904;2024-01-07T02:40:29;98448.73;;;-2.20;81.55
36138;BME280;67787;50.074;21.904;2024-01-07T02:42:57;98453.77;;;-2.20;81.47
36138;BME280;67787;50.074;21.904;2024-01-07T02:45:26;98462.66;;;-2.22;81.52
36138;BME280;67787;50.074;21.904;2024-01-07T02:47:54;98465.73;;;-2.25;81.47
36138;BME280;67787;50.074;21.904;2024-01-07T02:50:22;98462.23;;;-2.25;81.46
36138;BME280;67787;50.074;21.904;2024-01-07T02:52:50;98464.48;;;-2.24;81.50
36138;BME280;67787;50.074;21.904;2024-01-07T02:55:18;98461.62;;;-2.27;81.38
36138;BME280;67787;50.074;21.904;2024-01-07T02:57:46;98459.45;;;-2.30;81.44
36138;BME280;67787;50.074;21.904;2024-01-07T03:00:14;98456.36;;;-2.31;81.54
36138;BME280;67787;50.074;21.904;2024-01-07T03:02:42;98455.47;;;-2.31;81.44
36138;BME280;67787;50.074;21.904;2024-01-07T03:05:11;98459.67;;;-2.32;81.32
36138;BME280;67787;50.074;21.904;2024-01-07T03:07:38;98454.70;;;-2.34;81.40
36138;BME280;67787;50.074;21.904;2024-01-07T03:10:08;98454.61;;;-2.36;81.39
36138;BME280;67787;50.074;21.904;2024-01-07T03:12:35;98459.15;;;-2.37;81.36
36138;BME280;67787;50.074;21.904;2024-01-07T03:15:04;98462.11;;;-2.38;81.35
36138;BME280;67787;50.074;21.904;2024-01-07T03:17:33;98465.80;;;-2.40;81.39
36138;BME280;67787;50.074;21.904;2024-01-07T03:20:01;98461.50;;;-2.41;81.43
36138;BME280;67787;50.074;21.904;2024-01-07T03:22:29;98463.61;;;-2.42;81.43
36138;BME280;67787;50.074;21.904;2024-01-07T03:24:57;98461.20;;;-2.42;81.32
36138;BME280;67787;50.074;21.904;2024-01-07T03:27:25;98461.77;;;-2.44;81.35
36138;BME280;67787;50.074;21.904;2024-01-07T03:29:53;98461.84;;;-2.47;81.44
36138;BME280;67787;50.074;21.904;2024-01-07T03:32:21;98463.61;;;-2.48;81.40
36138;BME280;67787;50.074;21.904;2024-01-07T03:34:49;98468.65;;;-2.48;81.48
36138;BME280;67787;50.074;21.904;2024-01-07T03:37:17;98469.35;;;-2.48;81.47
36138;BME280;67787;50.074;21.904;2024-01-07T03:39:47;98471.64;;;-2.49;81.36
36138;BME280;67787;50.074;21.904;2024-01-07T03:42:15;98476.74;;;-2.51;81.22
36138;BME280;67787;50.074;21.904;2024-01-07T03:44:42;98478.73;;;-2.54;81.21
36138;BME280;67787;50.074;21.904;2024-01-07T03:47:10;98483.16;;;-2.58;81.32
36138;BME280;67787;50.074;21.904;2024-01-07T03:49:38;98486.36;;;-2.60;81.23
36138;BME280;67787;50.074;21.904;2024-01-07T03:52:07;98490.56;;;-2.61;81.42
36138;BME280;67787;50.074;21.904;2024-01-07T03:54:35;98489.54;;;-2.62;81.24
36138;BME280;67787;50.074;21.904;2024-01-07T03:57:03;98490.78;;;-2.63;81.34
36138;BME280;67787;50.074;21.904;2024-01-07T03:59:31;98487.67;;;-2.64;81.22
36138;BME280;67787;50.074;21.904;2024-01-07T04:01:59;98490.13;;;-2.70;81.28
36138;BME280;67787;50.074;21.904;2024-01-07T04:04:27;98488.54;;;-2.76;81.20
36138;BME280;67787;50.074;21.904;2024-01-07T04:06:55;98488.73;;;-2.77;81.13
36138;BME280;67787;50.074;21.904;2024-01-07T04:09:23;98489.65;;;-2.79;81.31
36138;BME280;67787;50.074;21.904;2024-01-07T04:11:51;98490.58;;;-2.80;81.25
36138;BME280;67787;50.074;21.904;2024-01-07T04:14:19;98489.78;;;-2.84;81.06
36138;BME280;67787;50.074;21.904;2024-01-07T04:16:47;98491.95;;;-2.87;81.12
36138;BME280;67787;50.074;21.904;2024-01-07T04:19:15;98493.04;;;-2.88;81.30
36138;BME280;67787;50.074;21.904;2024-01-07T04:21:46;98494.34;;;-2.91;81.16
36138;BME280;67787;50.074;21.904;2024-01-07T04:24:15;98499.12;;;-2.95;81.20
36138;BME280;67787;50.074;21.904;2024-01-07T04:26:43;98504.10;;;-3.00;81.06
36138;BME280;67787;50.074;21.904;2024-01-07T04:29:11;98504.32;;;-3.02;81.27
36138;BME280;67787;50.074;21.904;2024-01-07T04:31:39;98503.28;;;-3.02;81.18
36138;BME280;67787;50.074;21.904;2024-01-07T04:34:07;98500.56;;;-3.04;81.15
36138;BME280;67787;50.074;21.904;2024-01-07T04:36:35;98499.94;;;-3.06;81.10
36138;BME280;67787;50.074;21.904;2024-01-07T04:39:03;98511.04;;;-3.06;81.17
36138;BME280;67787;50.074;21.904;2024-01-07T04:41:31;98514.08;;;-3.10;81.20
36138;BME280;67787;50.074;21.904;2024-01-07T04:43:58;98522.11;;;-3.11;81.25
36138;BME280;67787;50.074;21.904;2024-01-07T04:46:26;98520.98;;;-3.15;81.08
36138;BME280;67787;50.074;21.904;2024-01-07T04:48:54;98518.73;;;-3.15;81.12
36138;BME280;67787;50.074;21.904;2024-01-07T04:51:23;98518.08;;;-3.17;81.17
36138;BME280;67787;50.074;21.904;2024-01-07T04:53:51;98517.95;;;-3.19;80.97
36138;BME280;67787;50.074;21.904;2024-01-07T04:56:19;98518.17;;;-3.21;81.16
36138;BME280;67787;50.074;21.904;2024-01-07T04:58:47;98521.70;;;-3.23;80.97
36138;BME280;67787;50.074;21.904;2024-01-07T05:01:15;98522.76;;;-3.24;81.27
36138;BME280;67787;50.074;21.904;2024-01-07T05:03:43;98523.67;;;-3.26;81.17
36138;BME280;67787;50.074;21.904;2024-01-07T05:06:11;98520.90;;;-3.26;81.00
36138;BME280;67787;50.074;21.904;2024-01-07T05:08:40;98521.76;;;-3.25;81.02
36138;BME280;67787;50.074;21.904;2024-01-07T05:11:08;98522.97;;;-3.25;81.09
36138;BME280;67787;50.074;21.904;2024-01-07T05:13:36;98525.42;;;-3.26;81.09
36138;BME280;67787;50.074;21.904;2024-01-07T05:16:04;98524.66;;;-3.31;81.05
36138;BME280;67787;50.074;21.904;2024-01-07T05:18:33;98527.48;;;-3.33;81.14
36138;BME280;67787;50.074;21.904;2024-01-07T05:21:01;98528.36;;;-3.34;81.06
36138;BME280;67787;50.074;21.904;2024-01-07T05:23:29;98527.17;;;-3.34;81.20
36138;BME280;67787;50.074;21.904;2024-01-07T05:26:00;98529.92;;;-3.33;81.15
36138;BME280;67787;50.074;21.904;2024-01-07T05:28:28;98529.44;;;-3.34;81.21
36138;BME280;67787;50.074;21.904;2024-01-07T05:30:56;98530.48;;;-3.34;81.11
36138;BME280;67787;50.074;21.904;2024-01-07T05:33:24;98531.69;;;-3.34;81.06
36138;BME280;67787;50.074;21.904;2024-01-07T05:35:52;98536.23;;;-3.35;81.12
36138;BME280;67787;50.074;21.904;2024-01-07T05:38:20;98534.14;;;-3.35;80.99
36138;BME280;67787;50.074;21.904;2024-01-07T05:40:48;98532.73;;;-3.35;81.13
36138;BME280;67787;50.074;21.904;2024-01-07T05:43:16;98534.31;;;-3.35;81.22
36138;BME280;67787;50.074;21.904;2024-01-07T05:45:44;98538.52;;;-3.37;80.95
36138;BME280;67787;50.074;21.904;2024-01-07T05:48:12;98534.03;;;-3.38;81.07
36138;BME280;67787;50.074;21.904;2024-01-07T05:50:40;98539.11;;;-3.40;80.92
36138;BME280;67787;50.074;21.904;2024-01-07T05:53:08;98536.55;;;-3.41;81.05
36138;BME280;67787;50.074;21.904;2024-01-07T05:55:35;98540.92;;;-3.43;80.96
36138;BME280;67787;50.074;21.904;2024-01-07T05:58:03;98543.77;;;-3.46;81.00
36138;BME280;67787;50.074;21.904;2024-01-07T06:00:31;98544.66;;;-3.47;80.97
36138;BME280;67787;50.074;21.904;2024-01-07T06:02:59;98547.33;;;-3.50;80.95
36138;BME280;67787;50.074;21.904;2024-01-07T06:05:29;98550.67;;;-3.52;80.77
36138;BME280;67787;50.074;21.904;2024-01-07T06:07:57;98550.16;;;-3.53;80.94
36138;BME280;67787;50.074;21.904;2024-01-07T06:10:26;98554.52;;;-3.53;80.90
36138;BME280;67787;50.074;21.904;2024-01-07T06:12:53;98555.56;;;-3.54;81.09
36138;BME280;67787;50.074;21.904;2024-01-07T06:15:22;98562.48;;;-3.53;81.16
36138;BME280;67787;50.074;21.904;2024-01-07T06:17:51;98563.52;;;-3.53;80.85
36138;BME280;67787;50.074;21.904;2024-01-07T06:20:19;98565.64;;;-3.55;80.97
36138;BME280;67787;50.074;21.904;2024-01-07T06:22:47;98566.02;;;-3.56;80.94
36138;BME280;67787;50.074;21.904;2024-01-07T06:25:15;98567.92;;;-3.56;80.86
36138;BME280;67787;50.074;21.904;2024-01-07T06:27:43;98572.80;;;-3.58;80.96
36138;BME280;67787;50.074;21.904;2024-01-07T06:30:12;98571.23;;;-3.57;81.05
36138;BME280;67787;50.074;21.904;2024-01-07T06:32:40;98574.23;;;-3.59;80.90
36138;BME280;67787;50.074;21.904;2024-01-07T06:35:08;98574.48;;;-3.63;80.91
36138;BME280;67787;50.074;21.904;2024-01-07T06:37:36;98569.84;;;-3.64;81.04
36138;BME280;67787;50.074;21.904;2024-01-07T06:40:04;98569.14;;;-3.64;80.92
36138;BME280;67787;50.074;21.904;2024-01-07T06:42:32;98571.06;;;-3.65;80.81
36138;BME280;67787;50.074;21.904;2024-01-07T06:45:00;98574.55;;;-3.66;81.01
36138;BME280;67787;50.074;21.904;2024-01-07T06:47:29;98574.27;;;-3.68;80.65
36138;BME280;67787;50.074;21.904;2024-01-07T06:49:57;98578.83;;;-3.70;80.73
36138;BME280;67787;50.074;21.904;2024-01-07T06:52:25;98579.67;;;-3.70;80.94
36138;BME280;67787;50.074;21.904;2024-01-07T06:54:53;98586.30;;;-3.71;80.64
36138;BME280;67787;50.074;21.904;2024-01-07T06:57:21;98588.45;;;-3.75;80.68
36138;BME280;67787;50.074;21.904;2024-01-07T06:59:49;98591.59;;;-3.76;80.85
36138;BME280;67787;50.074;21.904;2024-01-07T07:02:17;98592.42;;;-3.74;80.80
36138;BME280;67787;50.074;21.904;2024-01-07T07:04:45;98594.55;;;-3.69;80.75
36138;BME280;67787;50.074;21.904;2024-01-07T07:07:13;98594.27;;;-3.64;80.96
36138;BME280;67787;50.074;21.904;2024-01-07T07:09:41;98593.48;;;-3.60;80.99
36138;BME280;67787;50.074;21.904;2024-01-07T07:12:10;98593.26;;;-3.57;80.94
36138;BME280;67787;50.074;21.904;2024-01-07T07:14:38;98589.41;;;-3.55;80.96
36138;BME280;67787;50.074;21.904;2024-01-07T07:17:06;98592.15;;;-3.54;80.89
36138;BME280;67787;50.074;21.904;2024-01-07T07:19:34;98591.23;;;-3.52;80.83
36138;BME280;67787;50.074;21.904;2024-01-07T07:22:03;98592.14;;;-3.54;80.45
36138;BME280;67787;50.074;21.904;2024-01-07T07:24:32;98600.66;;;-3.54;80.84
36138;BME280;67787;50.074;21.904;2024-01-07T07:27:00;98605.30;;;-3.53;80.76
36138;BME280;67787;50.074;21.904;2024-01-07T07:29:27;98603.56;;;-3.53;80.74
36138;BME280;67787;50.074;21.904;2024-01-07T07:31:55;98606.10;;;-3.58;80.57
36138;BME280;67787;50.074;21.904;2024-01-07T07:34:23;98603.24;;;-3.63;80.54
36138;BME280;67787;50.074;21.904;2024-01-07T07:36:51;98603.45;;;-3.64;80.77
36138;BME280;67787;50.074;21.904;2024-01-07T07:39:19;98609.84;;;-3.63;80.67
36138;BME280;67787;50.074;21.904;2024-01-07T07:41:47;98609.63;;;-3.61;80.69
36138;BME280;67787;50.074;21.904;2024-01-07T07:44:15;98612.91;;;-3.61;80.76
36138;BME280;67787;50.074;21.904;2024-01-07T07:46:43;98614.27;;;-3.60;80.67
36138;BME280;67787;50.074;21.904;2024-01-07T07:49:11;98615.33;;;-3.60;80.63
36138;BME280;67787;50.074;21.904;2024-01-07T07:51:39;98617.43;;;-3.61;80.80
36138;BME280;67787;50.074;21.904;2024-01-07T07:54:07;98620.39;;;-3.62;80.66
36138;BME280;67787;50.074;21.904;2024-01-07T07:56:35;98619.36;;;-3.62;80.70
36138;BME280;67787;50.074;21.904;2024-01-07T07:59:03;98618.13;;;-3.62;80.87
36138;BME280;67787;50.074;21.904;2024-01-07T08:01:31;98620.13;;;-3.57;80.88
36138;BME280;67787;50.074;21.904;2024-01-07T08:03:59;98625.81;;;-3.56;80.61
36138;BME280;67787;50.074;21.904;2024-01-07T08:06:27;98630.38;;;-3.59;80.64
36138;BME280;67787;50.074;21.904;2024-01-07T08:08:55;98622.61;;;-3.60;80.60
36138;BME280;67787;50.074;21.904;2024-01-07T08:11:23;98624.16;;;-3.60;80.80
36138;BME280;67787;50.074;21.904;2024-01-07T08:13:52;98626.73;;;-3.58;80.75
36138;BME280;67787;50.074;21.904;2024-01-07T08:16:20;98630.38;;;-3.59;80.53
36138;BME280;67787;50.074;21.904;2024-01-07T08:18:47;98633.49;;;-3.59;80.70
36138;BME280;67787;50.074;21.904;2024-01-07T08:21:15;98635.89;;;-3.57;80.69
36138;BME280;67787;50.074;21.904;2024-01-07T08:23:43;98636.74;;;-3.57;80.73
36138;BME280;67787;50.074;21.904;2024-01-07T08:26:11;98639.14;;;-3.54;80.74
36138;BME280;67787;50.074;21.904;2024-01-07T08:28:40;98642.23;;;-3.54;80.48
36138;BME280;67787;50.074;21.904;2024-01-07T08:31:09;98644.85;;;-3.55;80.54
36138;BME280;67787;50.074;21.904;2024-01-07T08:33:37;98646.95;;;-3.55;80.40
36138;BME280;67787;50.074;21.904;2024-01-07T08:36:05;98647.02;;;-3.58;80.39
36138;BME280;67787;50.074;21.904;2024-01-07T08:38:33;98650.65;;;-3.58;80.71
36138;BME280;67787;50.074;21.904;2024-01-07T08:41:01;98656.84;;;-3.56;80.60
36138;BME280;67787;50.074;21.904;2024-01-07T08:43:29;98653.18;;;-3.55;80.57
36138;BME280;67787;50.074;21.904;2024-01-07T08:45:57;98656.95;;;-3.53;80.88
36138;BME280;67787;50.074;21.904;2024-01-07T08:48:25;98660.45;;;-3.54;80.60
36138;BME280;67787;50.074;21.904;2024-01-07T08:50:53;98654.92;;;-3.55;80.78
36138;BME280;67787;50.074;21.904;2024-01-07T08:53:20;98654.34;;;-3.52;80.66
36138;BME280;67787;50.074;21.904;2024-01-07T08:55:50;98658.15;;;-3.51;80.50
36138;BME280;67787;50.074;21.904;2024-01-07T08:58:17;98659.32;;;-3.50;80.48
36138;BME280;67787;50.074;21.904;2024-01-07T09:00:45;98661.39;;;-3.50;80.58
36138;BME280;67787;50.074;21.904;2024-01-07T09:03:13;98657.66;;;-3.46;80.68
36138;BME280;67787;50.074;21.904;2024-01-07T09:05:41;98663.14;;;-3.43;80.84
36138;BME280;67787;50.074;21.904;2024-01-07T09:08:09;98656.04;;;-3.44;80.34
36138;BME280;67787;50.074;21.904;2024-01-07T09:10:38;98660.85;;;-3.41;80.78
36138;BME280;67787;50.074;21.904;2024-01-07T09:13:06;98661.13;;;-3.38;80.65
36138;BME280;67787;50.074;21.904;2024-01-07T09:15:34;98661.98;;;-3.38;80.17
36138;BME280;67787;50.074;21.904;2024-01-07T09:18:02;98661.04;;;-3.42;80.30
36138;BME280;67787;50.074;21.904;2024-01-07T09:20:31;98662.11;;;-3.44;80.36
36138;BME280;67787;50.074;21.904;2024-01-07T09:22:59;98660.39;;;-3.44;80.41
36138;BME280;67787;50.074;21.904;2024-01-07T09:25:27;98657.77;;;-3.43;80.38
36138;BME280;67787;50.074;21.904;2024-01-07T09:27:55;98663.83;;;-3.43;80.47
36138;BME280;67787;50.074;21.904;2024-01-07T09:30:23;98665.55;;;-3.42;80.49
36138;BME280;67787;50.074;21.904;2024-01-07T09:32:51;98659.98;;;-3.41;80.63
36138;BME280;67787;50.074;21.904;2024-01-07T09:35:19;98663.63;;;-3.41;80.36
36138;BME280;67787;50.074;21.904;2024-01-07T09:37:47;98665.94;;;-3.45;80.34
36138;BME280;67787;50.074;21.904;2024-01-07T09:40:18;98664.43;;;-3.47;80.10
36138;BME280;67787;50.074;21.904;2024-01-07T09:42:50;98665.73;;;-3.50;79.79
36138;BME280;67787;50.074;21.904;2024-01-07T09:45:18;98665.94;;;-3.51;80.21
36138;BME280;67787;50.074;21.904;2024-01-07T09:47:46;98664.55;;;-3.52;80.41
36138;BME280;67787;50.074;21.904;2024-01-07T09:50:14;98665.51;;;-3.48;80.63
36138;BME280;67787;50.074;21.904;2024-01-07T09:52:44;98659.35;;;-3.45;80.40
36138;BME280;67787;50.074;21.904;2024-01-07T09:55:22;98659.70;;;-3.45;80.44
36138;BME280;67787;50.074;21.904;2024-01-07T09:57:54;98661.85;;;-3.47;80.11
36138;BME280;67787;50.074;21.904;2024-01-07T10:00:22;98654.07;;;-3.48;80.29
36138;BME280;67787;50.074;21.904;2024-01-07T10:02:50;98654.36;;;-3.46;80.33
36138;BME280;67787;50.074;21.904;2024-01-07T10:05:18;98652.48;;;-3.47;80.44
36138;BME280;67787;50.074;21.904;2024-01-07T10:07:46;98656.95;;;-3.45;80.45
36138;BME280;67787;50.074;21.904;2024-01-07T10:10:15;98658.50;;;-3.45;80.51
36138;BME280;67787;50.074;21.904;2024-01-07T10:12:44;98657.26;;;-3.44;80.58
36138;BME280;67787;50.074;21.904;2024-01-07T10:15:14;98655.03;;;-3.45;80.16
36138;BME280;67787;50.074;21.904;2024-01-07T10:17:42;98659.32;;;-3.43;80.29
36138;BME280;67787;50.074;21.904;2024-01-07T10:20:11;98656.11;;;-3.38;80.33
36138;BME280;67787;50.074;21.904;2024-01-07T10:22:39;98653.65;;;-3.37;80.24
36138;BME280;67787;50.074;21.904;2024-01-07T10:25:07;98651.75;;;-3.37;80.40
36138;BME280;67787;50.074;21.904;2024-01-07T10:27:35;98648.88;;;-3.40;79.98
36138;BME280;67787;50.074;21.904;2024-01-07T10:30:04;98653.61;;;-3.44;79.95
36138;BME280;67787;50.074;21.904;2024-01-07T10:32:35;98650.88;;;-3.45;80.13
36138;BME280;67787;50.074;21.904;2024-01-07T10:35:04;98654.14;;;-3.44;80.22
36138;BME280;67787;50.074;21.904;2024-01-07T10:37:33;98647.38;;;-3.44;80.23
36138;BME280;67787;50.074;21.904;2024-01-07T10:40:01;98646.10;;;-3.41;80.32
36138;BME280;67787;50.074;21.904;2024-01-07T10:42:32;98650.14;;;-3.36;80.33
36138;BME280;67787;50.074;21.904;2024-01-07T10:45:01;98648.95;;;-3.36;80.22
36138;BME280;67787;50.074;21.904;2024-01-07T10:47:31;98646.67;;;-3.36;80.44
36138;BME280;67787;50.074;21.904;2024-01-07T10:50:01;98652.55;;;-3.34;80.08
36138;BME280;67787;50.074;21.904;2024-01-07T10:52:32;98648.95;;;-3.37;80.02
36138;BME280;67787;50.074;21.904;2024-01-07T10:55:09;98649.48;;;-3.37;80.30
36138;BME280;67787;50.074;21.904;2024-01-07T10:57:48;98648.87;;;-3.40;79.86
36138;BME280;67787;50.074;21.904;2024-01-07T11:03:42;98644.23;;;-3.35;80.18
36138;BME280;67787;50.074;21.904;2024-01-07T11:06:27;98644.71;;;-3.41;79.94
36138;BME280;67787;50.074;21.904;2024-01-07T11:09:01;98647.32;;;-3.41;79.88
36138;BME280;67787;50.074;21.904;2024-01-07T11:11:39;98646.55;;;-3.46;80.18
36138;BME280;67787;50.074;21.904;2024-01-07T11:14:36;98648.15;;;-3.47;80.13
36138;BME280;67787;50.074;21.904;2024-01-07T11:17:05;98651.48;;;-3.48;80.05
36138;BME280;67787;50.074;21.904;2024-01-07T11:19:35;98654.05;;;-3.56;79.26
36138;BME280;67787;50.074;21.904;2024-01-07T11:22:28;98651.02;;;-3.60;79.59
36138;BME280;67787;50.074;21.904;2024-01-07T11:25:01;98649.61;;;-3.59;79.91
36138;BME280;67787;50.074;21.904;2024-01-07T11:27:30;98653.89;;;-3.56;80.00
36138;BME280;67787;50.074;21.904;2024-01-07T11:30:07;98650.96;;;-3.56;79.87
36138;BME280;67787;50.074;21.904;2024-01-07T11:32:39;98648.00;;;-3.56;80.14
36138;BME280;67787;50.074;21.904;2024-01-07T11:35:07;98645.89;;;-3.54;80.09
36138;BME280;67787;50.074;21.904;2024-01-07T11:37:35;98643.41;;;-3.53;79.96
36138;BME280;67787;50.074;21.904;2024-01-07T11:40:05;98648.36;;;-3.49;80.06
36138;BME280;67787;50.074;21.904;2024-01-07T11:42:34;98653.48;;;-3.52;79.34
36138;BME280;67787;50.074;21.904;2024-01-07T11:45:01;98655.82;;;-3.57;79.67
36138;BME280;67787;50.074;21.904;2024-01-07T11:47:29;98665.58;;;-3.60;79.23
36138;BME280;67787;50.074;21.904;2024-01-07T11:49:58;98662.60;;;-3.66;79.40
36138;BME280;67787;50.074;21.904;2024-01-07T11:52:28;98660.33;;;-3.73;79.44
36138;BME280;67787;50.074;21.904;2024-01-07T11:54:57;98658.48;;;-3.77;79.94
36138;BME280;67787;50.074;21.904;2024-01-07T11:57:25;98658.56;;;-3.71;79.99
36138;BME280;67787;50.074;21.904;2024-01-07T11:59:52;98665.40;;;-3.67;79.79
36138;BME280;67787;50.074;21.904;2024-01-07T12:02:20;98668.11;;;-3.72;79.30
36138;BME280;67787;50.074;21.904;2024-01-07T12:04:48;98671.75;;;-3.81;79.37
36138;BME280;67787;50.074;21.904;2024-01-07T12:07:17;98676.80;;;-3.83;79.59
36138;BME280;67787;50.074;21.904;2024-01-07T12:09:45;98675.56;;;-3.81;79.75
36138;BME280;67787;50.074;21.904;2024-01-07T12:12:13;98672.26;;;-3.81;79.78
36138;BME280;67787;50.074;21.904;2024-01-07T12:14:41;98670.77;;;-3.84;79.77
36138;BME280;67787;50.074;21.904;2024-01-07T12:17:09;98672.38;;;-3.86;79.48
36138;BME280;67787;50.074;21.904;2024-01-07T12:19:40;98670.52;;;-3.88;79.74
36138;BME280;67787;50.074;21.904;2024-01-07T12:22:08;98672.70;;;-3.85;79.88
36138;BME280;67787;50.074;21.904;2024-01-07T12:24:36;98676.02;;;-3.87;79.44
36138;BME280;67787;50.074;21.904;2024-01-07T12:27:07;98676.50;;;-3.93;79.39
36138;BME280;67787;50.074;21.904;2024-01-07T12:29:35;98673.41;;;-3.95;79.80
36138;BME280;67787;50.074;21.904;2024-01-07T12:32:05;98673.73;;;-3.94;79.67
36138;BME280;67787;50.074;21.904;2024-01-07T12:34:33;98679.10;;;-3.93;79.78
36138;BME280;67787;50.074;21.904;2024-01-07T12:37:01;98684.87;;;-3.96;79.46
36138;BME280;67787;50.074;21.904;2024-01-07T12:39:30;98692.20;;;-3.99;79.44
36138;BME280;67787;50.074;21.904;2024-01-07T12:41:58;98693.64;;;-4.02;79.38
36138;BME280;67787;50.074;21.904;2024-01-07T12:44:29;98697.92;;;-4.08;79.08
36138;BME280;67787;50.074;21.904;2024-01-07T12:46:57;98697.14;;;-4.13;79.31
36138;BME280;67787;50.074;21.904;2024-01-07T12:49:25;98694.23;;;-4.15;79.45
36138;BME280;67787;50.074;21.904;2024-01-07T12:51:53;98689.04;;;-4.14;79.54
36138;BME280;67787;50.074;21.904;2024-01-07T12:54:21;98693.70;;;-4.13;79.53
36138;BME280;67787;50.074;21.904;2024-01-07T12:56:51;98701.64;;;-4.12;79.50
36138;BME280;67787;50.074;21.904;2024-01-07T12:59:19;98702.38;;;-4.15;79.32
36138;BME280;67787;50.074;21.904;2024-01-07T13:01:47;98704.89;;;-4.19;78.72